createdAt,value
2023-02-22T00:01:08.814Z,8.69
2023-02-22T00:03:39.275Z,8.70
2023-02-22T00:06:07.911Z,8.72
2023-02-22T00:08:37.893Z,8.72
2023-02-22T00:11:15.244Z,8.69
2023-02-22T00:13:45.275Z,8.68
2023-02-22T00:16:19.628Z,8.67
2023-02-22T00:18:51.921Z,8.68
2023-02-22T00:21:23.071Z,8.69
2023-02-22T00:23:54.846Z,8.69
2023-02-22T00:26:23.698Z,8.67
2023-02-22T00:28:56.523Z,8.64
2023-02-22T00:31:25.843Z,8.60
2023-02-22T00:33:55.424Z,8.51
2023-02-22T00:36:24.453Z,8.49
2023-02-22T00:38:54.838Z,8.48
2023-02-22T00:41:27.002Z,8.47
2023-02-22T00:44:00.501Z,8.44
2023-02-22T00:46:29.016Z,8.38
2023-02-22T00:49:03.798Z,8.36
2023-02-22T00:51:34.135Z,8.33
2023-02-22T00:54:06.019Z,8.31
2023-02-22T00:56:35.210Z,8.32
2023-02-22T00:59:04.813Z,8.32
2023-02-22T01:01:33.421Z,8.29
2023-02-22T01:04:02.010Z,8.27
2023-02-22T01:06:30.556Z,8.25
2023-02-22T01:09:03.975Z,8.22
2023-02-22T01:11:32.529Z,8.18
2023-02-22T01:14:09.823Z,8.17
2023-02-22T01:16:38.307Z,8.18
2023-02-22T01:19:06.814Z,8.18
2023-02-22T01:21:35.750Z,8.19
2023-02-22T01:24:04.563Z,8.17
2023-02-22T01:26:33.100Z,8.16
2023-02-22T01:29:01.841Z,8.17
2023-02-22T01:31:30.429Z,8.17
2023-02-22T01:34:00.022Z,8.18
2023-02-22T01:36:28.614Z,8.17
2023-02-22T01:38:57.207Z,8.16
2023-02-22T01:41:28.472Z,8.14
2023-02-22T01:44:17.550Z,8.13
2023-02-22T01:46:46.281Z,8.08
2023-02-22T01:49:15.596Z,8.06
2023-02-22T01:51:49.030Z,8.05
2023-02-22T01:54:31.723Z,8.03
2023-02-22T01:57:06.325Z,8.00
2023-02-22T01:59:39.810Z,7.97
2023-02-22T02:02:10.552Z,7.94
2023-02-22T02:04:44.690Z,7.89
2023-02-22T02:07:22.836Z,7.85
2023-02-22T02:10:04.867Z,7.85
2023-02-22T02:12:36.454Z,7.87
2023-02-22T02:15:29.831Z,7.91
2023-02-22T02:18:05.210Z,7.93
2023-02-22T02:20:49.411Z,7.95
2023-02-22T02:23:41.171Z,7.95
2023-02-22T02:26:47.000Z,7.95
2023-02-22T02:29:37.066Z,7.93
2023-02-22T02:32:24.081Z,7.96
2023-02-22T02:35:04.124Z,7.99
2023-02-22T02:37:58.185Z,8.01
2023-02-22T02:40:37.603Z,8.00
2023-02-22T02:43:24.517Z,7.98
2023-02-22T02:46:21.623Z,7.94
2023-02-22T02:49:06.110Z,7.89
2023-02-22T02:51:38.954Z,7.86
2023-02-22T02:54:08.471Z,7.86
2023-02-22T02:56:37.189Z,7.86
2023-02-22T02:59:28.249Z,7.89
2023-02-22T03:02:15.060Z,7.93
2023-02-22T03:04:43.670Z,7.94
2023-02-22T03:07:34.201Z,7.93
2023-02-22T03:10:13.346Z,7.92
2023-02-22T03:13:04.052Z,7.91
2023-02-22T03:15:40.852Z,7.88
2023-02-22T03:18:18.799Z,7.87
2023-02-22T03:21:01.520Z,7.87
2023-02-22T03:23:41.624Z,7.87
2023-02-22T03:26:19.692Z,7.83
2023-02-22T03:28:51.737Z,7.76
2023-02-22T03:31:26.777Z,7.72
2023-02-22T03:34:01.072Z,7.70
2023-02-22T03:36:35.272Z,7.68
2023-02-22T03:39:04.539Z,7.64
2023-02-22T03:41:44.404Z,7.63
2023-02-22T03:44:20.198Z,7.61
2023-02-22T03:46:52.739Z,7.55
2023-02-22T03:49:36.021Z,7.51
2023-02-22T03:52:07.262Z,7.49
2023-02-22T03:54:37.936Z,7.46
2023-02-22T03:57:16.819Z,7.46
2023-02-22T03:59:49.737Z,7.49
2023-02-22T04:02:19.281Z,7.52
2023-02-22T04:04:51.830Z,7.52
2023-02-22T04:07:28.022Z,7.51
2023-02-22T04:10:03.546Z,7.50
2023-02-22T04:12:32.885Z,7.46
2023-02-22T04:15:09.508Z,7.42
2023-02-22T04:17:38.768Z,7.41
2023-02-22T04:20:11.903Z,7.43
2023-02-22T04:22:53.448Z,7.43
2023-02-22T04:25:23.676Z,7.41
2023-02-22T04:27:56.232Z,7.40
2023-02-22T04:30:36.269Z,7.38
2023-02-22T04:33:10.950Z,7.33
2023-02-22T04:35:44.299Z,7.28
2023-02-22T04:38:13.047Z,7.24
2023-02-22T04:40:42.684Z,7.17
2023-02-22T04:43:11.397Z,7.10
2023-02-22T04:45:41.814Z,7.01
2023-02-22T04:48:11.949Z,6.92
2023-02-22T04:50:40.832Z,6.85
2023-02-22T04:53:09.413Z,6.80
2023-02-22T04:55:42.883Z,6.79
2023-02-22T04:58:13.881Z,6.82
2023-02-22T05:00:45.014Z,6.82
2023-02-22T05:03:19.208Z,6.83
2023-02-22T05:05:52.160Z,6.85
2023-02-22T05:08:21.123Z,6.87
2023-02-22T05:10:49.607Z,6.87
2023-02-22T05:13:18.292Z,6.88
2023-02-22T05:15:49.962Z,6.90
2023-02-22T05:18:23.934Z,6.90
2023-02-22T05:20:57.680Z,6.91
2023-02-22T05:23:26.302Z,6.93
2023-02-22T05:25:58.199Z,6.95
2023-02-22T05:28:27.992Z,6.93
2023-02-22T05:30:59.428Z,6.90
2023-02-22T05:33:27.997Z,6.90
2023-02-22T05:36:01.594Z,6.93
2023-02-22T05:38:30.528Z,6.95
2023-02-22T05:40:59.133Z,6.95
2023-02-22T05:43:28.834Z,6.93
2023-02-22T05:46:18.722Z,6.86
2023-02-22T05:48:49.646Z,6.83
2023-02-22T05:51:19.839Z,6.84
2023-02-22T05:53:48.423Z,6.88
2023-02-22T05:56:28.303Z,6.91
2023-02-22T05:59:00.638Z,6.91
2023-02-22T06:01:34.266Z,6.91
2023-02-22T06:04:07.867Z,6.90
2023-02-22T06:06:36.410Z,6.89
2023-02-22T06:09:10.329Z,6.88
2023-02-22T06:11:41.284Z,6.91
2023-02-22T06:14:09.895Z,6.96
2023-02-22T06:16:38.444Z,6.98
2023-02-22T06:19:10.863Z,7.01
2023-02-22T06:21:39.729Z,7.03
2023-02-22T06:24:10.726Z,7.07
2023-02-22T06:26:42.891Z,7.05
2023-02-22T06:29:18.698Z,7.02
2023-02-22T06:31:50.571Z,7.02
2023-02-22T06:34:24.915Z,7.03
2023-02-22T06:36:53.509Z,7.08
2023-02-22T06:39:22.170Z,7.12
2023-02-22T06:41:57.947Z,7.13
2023-02-22T06:44:26.910Z,7.12
2023-02-22T06:46:59.845Z,7.13
2023-02-22T06:49:29.215Z,7.12
2023-02-22T06:51:57.753Z,7.12
2023-02-22T06:54:27.383Z,7.16
2023-02-22T06:56:57.691Z,7.22
2023-02-22T06:59:26.358Z,7.29
2023-02-22T07:01:55.397Z,7.32
2023-02-22T07:04:24.040Z,7.33
2023-02-22T07:06:52.737Z,7.35
2023-02-22T07:09:21.463Z,7.35
2023-02-22T07:11:50.220Z,7.34
2023-02-22T07:14:19.177Z,7.36
2023-02-22T07:16:47.696Z,7.39
2023-02-22T07:19:16.249Z,7.41
2023-02-22T07:21:48.249Z,7.46
2023-02-22T07:24:18.984Z,7.48
2023-02-22T07:26:47.537Z,7.50
2023-02-22T07:29:16.935Z,7.46
2023-02-22T07:31:45.562Z,7.43
2023-02-22T07:34:14.652Z,7.43
2023-02-22T07:36:43.313Z,7.49
2023-02-22T07:39:11.894Z,7.55
2023-02-22T07:41:40.599Z,7.59
2023-02-22T07:44:17.691Z,7.64
2023-02-22T07:46:50.561Z,7.71
2023-02-22T07:49:19.136Z,7.78
2023-02-22T07:51:47.716Z,7.86
2023-02-22T07:54:16.305Z,7.87
2023-02-22T07:56:46.859Z,7.90
2023-02-22T07:59:18.813Z,7.91
2023-02-22T08:01:50.657Z,7.94
2023-02-22T08:04:19.198Z,7.90
2023-02-22T08:06:50.993Z,7.85
2023-02-22T08:09:19.667Z,7.88
2023-02-22T08:11:48.468Z,7.89
2023-02-22T08:14:17.658Z,7.91
2023-02-22T08:16:46.399Z,7.92
2023-02-22T08:19:15.849Z,7.91
2023-02-22T08:21:47.175Z,7.97
2023-02-22T08:24:19.050Z,7.94
2023-02-22T08:26:48.074Z,7.98
2023-02-22T08:29:16.732Z,8.03
2023-02-22T08:31:50.994Z,8.12
2023-02-22T08:34:25.069Z,8.16
2023-02-22T08:36:57.138Z,8.19
2023-02-22T08:39:29.922Z,8.20
2023-02-22T08:41:58.523Z,8.26
2023-02-22T08:44:27.803Z,8.32
2023-02-22T08:47:01.323Z,8.43
2023-02-22T08:49:29.902Z,8.56
2023-02-22T08:52:03.865Z,8.64
2023-02-22T08:54:32.488Z,8.77
2023-02-22T08:57:06.284Z,8.88
2023-02-22T08:59:37.906Z,8.92
2023-02-22T09:02:11.204Z,8.98
2023-02-22T09:04:39.831Z,9.06
2023-02-22T09:07:11.534Z,9.06
2023-02-22T09:09:40.005Z,9.19
2023-02-22T09:12:12.068Z,9.40
2023-02-22T09:14:40.820Z,9.48
2023-02-22T09:17:09.534Z,9.50
2023-02-22T09:19:38.044Z,9.51
2023-02-22T09:22:06.648Z,9.67
2023-02-22T09:24:36.237Z,9.84
2023-02-22T09:27:04.900Z,9.89
2023-02-22T09:29:35.714Z,9.84
2023-02-22T09:32:04.664Z,9.83
2023-02-22T09:34:35.633Z,9.77
2023-02-22T09:37:08.888Z,9.71
2023-02-22T09:39:38.003Z,9.70
2023-02-22T09:42:17.590Z,9.68
2023-02-22T09:45:12.977Z,9.69
2023-02-22T09:47:50.984Z,9.69
2023-02-22T09:50:26.909Z,9.76
2023-02-22T09:53:33.774Z,9.77
2023-02-22T09:56:11.215Z,9.82
2023-02-22T09:58:48.074Z,9.92
2023-02-22T10:01:28.461Z,10.04
2023-02-22T10:04:20.513Z,10.06
2023-02-22T10:07:06.318Z,10.09
2023-02-22T10:09:43.263Z,10.05
2023-02-22T10:12:38.437Z,9.97
2023-02-22T10:15:19.903Z,9.81
2023-02-22T10:17:59.060Z,9.80
2023-02-22T10:20:39.784Z,9.80
2023-02-22T10:23:23.842Z,9.76
2023-02-22T10:26:04.586Z,9.71
2023-02-22T10:28:42.594Z,9.67
2023-02-22T10:31:22.115Z,9.64
2023-02-22T10:33:59.082Z,9.62
2023-02-22T10:36:31.094Z,9.60
2023-02-22T10:39:14.241Z,9.57
2023-02-22T10:41:55.756Z,9.56
2023-02-22T10:44:28.127Z,9.58
2023-02-22T10:47:01.578Z,9.60
2023-02-22T10:49:39.418Z,9.61
2023-02-22T10:52:23.422Z,9.60
2023-02-22T10:55:01.050Z,9.58
2023-02-22T10:57:38.025Z,9.58
2023-02-22T11:00:30.778Z,9.62
2023-02-22T11:03:02.066Z,9.70
2023-02-22T11:05:38.145Z,9.80
2023-02-22T11:08:21.617Z,9.88
2023-02-22T11:10:53.572Z,10.00
2023-02-22T11:13:37.904Z,10.13
2023-02-22T11:16:29.173Z,10.22
2023-02-22T11:19:03.883Z,10.18
2023-02-22T11:21:32.831Z,10.18
2023-02-22T11:24:11.717Z,10.25
2023-02-22T11:26:55.314Z,10.32
2023-02-22T11:29:35.773Z,10.41
2023-02-22T11:32:21.096Z,10.51
2023-02-22T11:35:03.557Z,10.62
2023-02-22T11:37:37.658Z,10.67
2023-02-22T11:40:17.941Z,10.74
2023-02-22T11:42:47.274Z,10.77
2023-02-22T11:45:27.709Z,10.81
2023-02-22T11:48:06.418Z,10.81
2023-02-22T11:50:56.729Z,10.78
2023-02-22T11:54:06.884Z,10.82
2023-02-22T11:56:49.337Z,10.89
2023-02-22T11:59:41.012Z,10.90
2023-02-22T12:02:19.950Z,10.94
2023-02-22T12:04:55.081Z,10.98
2023-02-22T12:07:48.912Z,11.02
2023-02-22T12:13:50.398Z,11.05
2023-02-22T12:16:35.661Z,11.09
2023-02-22T12:19:31.791Z,11.15
2023-02-22T12:22:09.728Z,11.20
2023-02-22T12:24:46.342Z,11.20
2023-02-22T12:27:24.455Z,11.22
2023-02-22T12:29:59.619Z,11.25
2023-02-22T12:32:49.959Z,11.27
2023-02-22T12:35:23.791Z,11.27
2023-02-22T12:38:17.298Z,11.23
2023-02-22T12:40:57.274Z,11.14
2023-02-22T12:44:02.909Z,10.99
2023-02-22T12:46:49.939Z,10.83
2023-02-22T12:49:28.935Z,10.69
2023-02-22T12:52:20.562Z,10.66
2023-02-22T12:55:16.067Z,10.67
2023-02-22T12:57:44.695Z,10.65
2023-02-22T13:00:39.738Z,10.63
2023-02-22T13:03:40.118Z,10.56
2023-02-22T13:06:22.011Z,10.51
2023-02-22T13:09:33.713Z,10.49
2023-02-22T13:12:20.596Z,10.51
2023-02-22T13:14:49.388Z,10.50
2023-02-22T13:17:33.212Z,10.47
2023-02-22T13:20:06.459Z,10.47
2023-02-22T13:23:17.700Z,10.46
2023-02-22T13:25:58.149Z,10.45
2023-02-22T13:28:33.594Z,10.39
2023-02-22T13:31:31.085Z,10.41
2023-02-22T13:34:29.099Z,10.39
2023-02-22T13:36:58.351Z,10.36
2023-02-22T13:40:03.261Z,10.37
2023-02-22T13:43:01.946Z,10.37
2023-02-22T13:46:18.126Z,10.27
2023-02-22T13:49:02.295Z,10.22
2023-02-22T13:51:39.842Z,10.19
2023-02-22T13:54:16.486Z,10.17
2023-02-22T13:56:46.730Z,10.20
2023-02-22T13:59:41.629Z,10.23
2023-02-22T14:02:48.503Z,10.28
2023-02-22T14:05:39.848Z,10.31
2023-02-22T14:08:28.331Z,10.33
2023-02-22T14:11:01.207Z,10.36
2023-02-22T14:14:01.023Z,10.36
2023-02-22T14:16:34.176Z,10.33
2023-02-22T14:19:14.769Z,10.33
2023-02-22T14:22:02.413Z,10.35
2023-02-22T14:24:45.382Z,10.39
2023-02-22T14:27:15.302Z,10.45
2023-02-22T14:29:56.730Z,10.57
2023-02-22T14:32:36.059Z,10.73
2023-02-22T14:35:14.315Z,10.85
2023-02-22T14:37:56.628Z,10.95
2023-02-22T14:40:30.931Z,11.01
2023-02-22T14:43:12.192Z,11.03
2023-02-22T14:45:53.767Z,10.99
2023-02-22T14:48:45.408Z,10.88
2023-02-22T14:51:29.443Z,10.73
2023-02-22T14:54:10.538Z,10.64
2023-02-22T14:56:41.655Z,10.68
2023-02-22T14:59:27.568Z,10.66
2023-02-22T15:02:26.298Z,10.51
2023-02-22T15:04:56.665Z,10.37
2023-02-22T15:07:31.875Z,10.24
2023-02-22T15:10:20.824Z,10.11
2023-02-22T15:13:11.362Z,9.98
2023-02-22T15:15:44.043Z,9.82
2023-02-22T15:18:23.457Z,9.68
2023-02-22T15:20:58.717Z,9.56
2023-02-22T15:23:30.521Z,9.50
2023-02-22T15:25:59.265Z,9.40
2023-02-22T15:28:31.330Z,9.28
2023-02-22T15:31:28.294Z,9.18
2023-02-22T15:33:57.949Z,9.05
2023-02-22T15:36:31.367Z,8.93
2023-02-22T15:38:59.862Z,8.82
2023-02-22T15:41:33.688Z,8.75
2023-02-22T15:44:22.797Z,8.68
2023-02-22T15:46:55.410Z,8.60
2023-02-22T15:49:25.081Z,8.55
2023-02-22T15:52:19.836Z,8.50
2023-02-22T15:54:52.017Z,8.44
2023-02-22T15:57:25.689Z,8.39
2023-02-22T15:59:57.468Z,8.35
2023-02-22T16:02:34.978Z,8.31
2023-02-22T16:05:12.022Z,8.27
2023-02-22T16:07:45.591Z,8.23
2023-02-22T16:10:29.974Z,8.19
2023-02-22T16:13:31.876Z,8.16
2023-02-22T16:16:22.890Z,8.11
2023-02-22T16:18:52.809Z,8.05
2023-02-22T16:21:22.882Z,8.02
2023-02-22T16:23:57.375Z,7.97
2023-02-22T16:26:35.237Z,7.92
2023-02-22T16:29:07.717Z,7.87
2023-02-22T16:31:39.270Z,7.82
2023-02-22T16:34:41.892Z,7.77
2023-02-22T16:37:22.581Z,7.72
2023-02-22T16:39:52.123Z,7.68
2023-02-22T16:42:24.353Z,7.65
2023-02-22T16:44:53.961Z,7.61
2023-02-22T16:47:22.542Z,7.57
2023-02-22T16:49:57.272Z,7.51
2023-02-22T16:52:28.418Z,7.45
2023-02-22T16:54:58.151Z,7.40
2023-02-22T16:57:28.159Z,7.34
2023-02-22T16:59:56.727Z,7.29
2023-02-22T17:02:25.629Z,7.24
2023-02-22T17:04:54.213Z,7.20
2023-02-22T17:07:31.081Z,7.15
2023-02-22T17:10:00.377Z,7.11
2023-02-22T17:12:32.358Z,7.06
2023-02-22T17:15:01.127Z,7.01
2023-02-22T17:17:29.679Z,6.98
2023-02-22T17:20:00.052Z,6.94
2023-02-22T17:22:28.612Z,6.90
2023-02-22T17:24:57.302Z,6.87
2023-02-22T17:27:25.985Z,6.83
2023-02-22T17:29:54.701Z,6.81
2023-02-22T17:32:23.385Z,6.79
2023-02-22T17:34:52.448Z,6.74
2023-02-22T17:37:21.033Z,6.71
2023-02-22T17:39:49.521Z,6.67
2023-02-22T17:42:18.306Z,6.63
2023-02-22T17:44:47.029Z,6.60
2023-02-22T17:47:18.965Z,6.57
2023-02-22T17:49:49.393Z,6.52
2023-02-22T17:52:17.971Z,6.48
2023-02-22T17:54:51.166Z,6.45
2023-02-22T17:57:21.798Z,6.42
2023-02-22T17:59:50.579Z,6.37
2023-02-22T18:02:21.428Z,6.32
2023-02-22T18:04:52.554Z,6.28
2023-02-22T18:07:24.310Z,6.24
2023-02-22T18:09:53.029Z,6.20
2023-02-22T18:12:21.642Z,6.15
2023-02-22T18:14:50.370Z,6.08
2023-02-22T18:17:19.056Z,6.02
2023-02-22T18:19:48.754Z,5.93
2023-02-22T18:22:17.401Z,5.84
2023-02-22T18:24:46.037Z,5.75
2023-02-22T18:27:17.280Z,5.67
2023-02-22T18:29:48.443Z,5.60
2023-02-22T18:32:19.910Z,5.53
2023-02-22T18:34:50.918Z,5.45
2023-02-22T18:37:20.730Z,5.37
2023-02-22T18:39:52.107Z,5.32
2023-02-22T18:42:22.851Z,5.27
2023-02-22T18:44:51.937Z,5.22
2023-02-22T18:47:22.174Z,5.18
2023-02-22T18:49:50.626Z,5.13
2023-02-22T18:52:19.217Z,5.11
2023-02-22T18:54:49.741Z,5.08
2023-02-22T18:57:23.017Z,5.04
2023-02-22T18:59:51.546Z,5.01
2023-02-22T19:02:21.063Z,4.98
2023-02-22T19:04:49.787Z,4.92
2023-02-22T19:07:20.421Z,4.86
2023-02-22T19:09:52.073Z,4.80
2023-02-22T19:12:20.771Z,4.74
2023-02-22T19:14:49.752Z,4.68
2023-02-22T19:17:21.823Z,4.64
2023-02-22T19:19:50.722Z,4.58
2023-02-22T19:22:19.192Z,4.56
2023-02-22T19:24:47.874Z,4.57
2023-02-22T19:27:18.823Z,4.55
2023-02-22T19:29:49.308Z,4.50
2023-02-22T19:32:18.938Z,4.43
2023-02-22T19:34:47.567Z,4.35
2023-02-22T19:37:16.982Z,4.27
2023-02-22T19:39:45.483Z,4.22
2023-02-22T19:42:14.311Z,4.15
2023-02-22T19:44:42.791Z,4.11
2023-02-22T19:47:11.483Z,4.09
2023-02-22T19:49:41.389Z,4.06
2023-02-22T19:52:10.081Z,4.03
2023-02-22T19:54:38.765Z,3.98
2023-02-22T19:57:07.453Z,3.94
2023-02-22T19:59:36.233Z,3.91
2023-02-22T20:02:11.958Z,3.88
2023-02-22T20:04:40.944Z,3.86
2023-02-22T20:07:09.764Z,3.86
2023-02-22T20:09:40.453Z,3.85
2023-02-22T20:12:09.600Z,3.81
2023-02-22T20:14:38.992Z,3.73
2023-02-22T20:17:08.298Z,3.66
2023-02-22T20:19:38.002Z,3.61
2023-02-22T20:22:07.005Z,3.57
2023-02-22T20:24:35.587Z,3.52
2023-02-22T20:27:04.332Z,3.51
2023-02-22T20:29:33.263Z,3.52
2023-02-22T20:32:03.193Z,3.51
2023-02-22T20:34:33.700Z,3.48
2023-02-22T20:37:03.035Z,3.44
2023-02-22T20:39:31.996Z,3.40
2023-02-22T20:42:00.825Z,3.34
2023-02-22T20:44:30.422Z,3.28
2023-02-22T20:47:06.352Z,3.23
2023-02-22T20:49:36.334Z,3.19
2023-02-22T20:52:05.176Z,3.15
2023-02-22T20:54:35.581Z,3.11
2023-02-22T20:57:08.272Z,3.04
2023-02-22T20:59:36.610Z,2.96
2023-02-22T21:02:05.532Z,2.90
2023-02-22T21:04:34.376Z,2.87
2023-02-22T21:07:03.419Z,2.85
2023-02-22T21:09:34.252Z,2.84
2023-02-22T21:12:03.156Z,2.81
2023-02-22T21:14:32.854Z,2.76
2023-02-22T21:17:04.314Z,2.74
2023-02-22T21:19:33.713Z,2.70
2023-02-22T21:22:08.309Z,2.63
2023-02-22T21:24:37.335Z,2.61
2023-02-22T21:27:07.172Z,2.62
2023-02-22T21:29:36.333Z,2.59
2023-02-22T21:32:05.395Z,2.55
2023-02-22T21:34:34.317Z,2.50
2023-02-22T21:37:02.948Z,2.46
2023-02-22T21:39:31.939Z,2.43
2023-02-22T21:42:00.722Z,2.42
2023-02-22T21:44:30.180Z,2.42
2023-02-22T21:47:01.134Z,2.40
2023-02-22T21:49:29.782Z,2.37
2023-02-22T21:52:00.693Z,2.33
2023-02-22T21:54:29.211Z,2.27
2023-02-22T21:56:59.943Z,2.25
2023-02-22T21:59:28.625Z,2.22
2023-02-22T22:01:59.412Z,2.21
2023-02-22T22:04:30.012Z,2.22
2023-02-22T22:07:04.000Z,2.19
2023-02-22T22:09:33.392Z,2.14
2023-02-22T22:12:05.793Z,2.10
2023-02-22T22:14:34.992Z,2.06
2023-02-22T22:17:05.950Z,1.99
2023-02-22T22:19:40.727Z,1.94
2023-02-22T22:22:11.228Z,1.94
2023-02-22T22:24:42.173Z,1.96
2023-02-22T22:27:13.138Z,1.94
2023-02-22T22:29:43.563Z,1.88
2023-02-22T22:32:12.311Z,1.82
2023-02-22T22:34:42.713Z,1.75
2023-02-22T22:37:11.248Z,1.75
2023-02-22T22:39:39.902Z,1.75
2023-02-22T22:42:10.114Z,1.74
2023-02-22T22:44:42.501Z,1.71
2023-02-22T22:47:19.700Z,1.71
2023-02-22T22:50:01.541Z,1.68
2023-02-22T22:52:37.852Z,1.62
2023-02-22T22:58:34.003Z,1.58
2023-02-22T23:01:06.813Z,1.53
2023-02-22T23:03:38.105Z,1.54
2023-02-22T23:06:13.482Z,1.46
2023-02-22T23:08:43.311Z,1.41
2023-02-22T23:11:12.690Z,1.36
2023-02-22T23:13:46.006Z,1.31
2023-02-22T23:16:17.707Z,1.28
2023-02-22T23:18:51.568Z,1.30
2023-02-22T23:21:25.511Z,1.35
2023-02-22T23:24:07.886Z,1.34
2023-02-22T23:26:38.903Z,1.33
2023-02-22T23:29:08.985Z,1.31
2023-02-22T23:31:41.188Z,1.27
2023-02-22T23:34:11.380Z,1.26
2023-02-22T23:36:49.791Z,1.26
2023-02-22T23:39:22.569Z,1.26
2023-02-22T23:41:59.628Z,1.23
2023-02-22T23:44:31.709Z,1.15
2023-02-22T23:47:05.620Z,1.11
2023-02-22T23:49:38.624Z,1.06
2023-02-22T23:52:09.052Z,1.03
2023-02-22T23:54:44.238Z,1.03
2023-02-22T23:57:17.732Z,1.05
2023-02-22T23:59:54.210Z,1.04
